Terminal Aerodrome Forecast
Issued by NWS

Home | Current Version | Previous Version | Text Only | Print | Product List | Glossary On
Versions: 1 2 3 4 5 6 7 8 9 10 11 12 13 14 15 16 17
000
FTUS41 KRNK 191137
TAFLWB
TAF
KLWB 191137Z 1912/2012 00000KT 4SM BR SCT001
      TEMPO 1912/1913 1SM BR BKN001
     FM191400 26004KT P6SM SKC=

USA.gov is the U.S. government's official web portal to all federal, state and local government web resources and services.